sensor_id;sensor_type;location;lat;lon;timestamp;P1;durP1;ratioP1;P2;durP2;ratioP2
3677;SDS011;1855;50.934;6.958;2023-01-19T00:00:38;7.70;;;7.00;;
3677;SDS011;1855;50.934;6.958;2023-01-19T00:03:04;8.32;;;7.60;;
3677;SDS011;1855;50.934;6.958;2023-01-19T00:05:34;8.32;;;7.53;;
3677;SDS011;1855;50.934;6.958;2023-01-19T00:08:01;9.25;;;8.00;;
3677;SDS011;1855;50.934;6.958;2023-01-19T00:10:38;8.52;;;7.63;;
3677;SDS011;1855;50.934;6.958;2023-01-19T00:13:07;8.32;;;7.53;;
3677;SDS011;1855;50.934;6.958;2023-01-19T00:15:33;8.10;;;7.40;;
3677;SDS011;1855;50.934;6.958;2023-01-19T00:18:00;8.35;;;7.55;;
3677;SDS011;1855;50.934;6.958;2023-01-19T00:20:27;8.97;;;8.17;;
3677;SDS011;1855;50.934;6.958;2023-01-19T00:22:56;8.73;;;7.93;;
3677;SDS011;1855;50.934;6.958;2023-01-19T00:25:22;8.68;;;7.88;;
3677;SDS011;1855;50.934;6.958;2023-01-19T00:27:49;9.13;;;8.32;;
3677;SDS011;1855;50.934;6.958;2023-01-19T00:30:17;8.70;;;7.90;;
3677;SDS011;1855;50.934;6.958;2023-01-19T00:32:44;9.50;;;8.60;;
3677;SDS011;1855;50.934;6.958;2023-01-19T00:35:11;8.53;;;7.63;;
3677;SDS011;1855;50.934;6.958;2023-01-19T00:37:38;8.82;;;8.02;;
3677;SDS011;1855;50.934;6.958;2023-01-19T00:40:05;8.30;;;7.50;;
3677;SDS011;1855;50.934;6.958;2023-01-19T00:42:32;8.60;;;7.07;;
3677;SDS011;1855;50.934;6.958;2023-01-19T00:45:05;8.40;;;7.65;;
3677;SDS011;1855;50.934;6.958;2023-01-19T00:47:34;7.53;;;6.82;;
3677;SDS011;1855;50.934;6.958;2023-01-19T00:50:03;7.60;;;6.90;;
3677;SDS011;1855;50.934;6.958;2023-01-19T00:52:31;7.82;;;7.03;;
3677;SDS011;1855;50.934;6.958;2023-01-19T00:54:57;7.53;;;6.90;;
3677;SDS011;1855;50.934;6.958;2023-01-19T00:57:24;7.70;;;6.95;;
3677;SDS011;1855;50.934;6.958;2023-01-19T00:59:51;8.15;;;7.35;;
3677;SDS011;1855;50.934;6.958;2023-01-19T01:02:18;7.00;;;6.30;;
3677;SDS011;1855;50.934;6.958;2023-01-19T01:04:46;8.30;;;7.50;;
3677;SDS011;1855;50.934;6.958;2023-01-19T01:07:18;7.63;;;6.95;;
3677;SDS011;1855;50.934;6.958;2023-01-19T01:09:45;8.00;;;7.20;;
3677;SDS011;1855;50.934;6.958;2023-01-19T01:12:12;7.72;;;7.03;;
3677;SDS011;1855;50.934;6.958;2023-01-19T01:14:39;7.05;;;6.40;;
3677;SDS011;1855;50.934;6.958;2023-01-19T01:17:05;6.90;;;6.30;;
3677;SDS011;1855;50.934;6.958;2023-01-19T01:19:35;7.20;;;6.50;;
3677;SDS011;1855;50.934;6.958;2023-01-19T01:22:03;7.20;;;6.50;;
3677;SDS011;1855;50.934;6.958;2023-01-19T01:24:30;7.40;;;6.70;;
3677;SDS011;1855;50.934;6.958;2023-01-19T01:26:57;6.78;;;6.18;;
3677;SDS011;1855;50.934;6.958;2023-01-19T01:29:24;7.07;;;6.47;;
3677;SDS011;1855;50.934;6.958;2023-01-19T01:31:51;7.13;;;6.43;;
3677;SDS011;1855;50.934;6.958;2023-01-19T01:34:18;7.00;;;6.40;;
3677;SDS011;1855;50.934;6.958;2023-01-19T01:36:45;6.60;;;5.90;;
3677;SDS011;1855;50.934;6.958;2023-01-19T01:39:13;6.68;;;6.00;;
3677;SDS011;1855;50.934;6.958;2023-01-19T01:41:39;6.40;;;5.80;;
3677;SDS011;1855;50.934;6.958;2023-01-19T01:47:13;6.30;;;5.70;;
3677;SDS011;1855;50.934;6.958;2023-01-19T01:49:41;6.03;;;5.53;;
3677;SDS011;1855;50.934;6.958;2023-01-19T01:52:09;6.00;;;5.50;;
3677;SDS011;1855;50.934;6.958;2023-01-19T01:54:37;6.70;;;5.60;;
3677;SDS011;1855;50.934;6.958;2023-01-19T01:57:05;5.80;;;5.30;;
3677;SDS011;1855;50.934;6.958;2023-01-19T01:59:37;5.70;;;5.30;;
3677;SDS011;1855;50.934;6.958;2023-01-19T02:02:08;5.63;;;5.18;;
3677;SDS011;1855;50.934;6.958;2023-01-19T02:04:56;5.63;;;5.15;;
3677;SDS011;1855;50.934;6.958;2023-01-19T02:07:28;5.70;;;5.20;;
3677;SDS011;1855;50.934;6.958;2023-01-19T02:10:21;5.60;;;5.10;;
3677;SDS011;1855;50.934;6.958;2023-01-19T02:13:05;5.40;;;4.90;;
3677;SDS011;1855;50.934;6.958;2023-01-19T02:15:48;6.18;;;5.22;;
3677;SDS011;1855;50.934;6.958;2023-01-19T02:18:17;5.18;;;4.68;;
3677;SDS011;1855;50.934;6.958;2023-01-19T02:20:46;5.40;;;4.90;;
3677;SDS011;1855;50.934;6.958;2023-01-19T02:23:19;5.10;;;4.70;;
3677;SDS011;1855;50.934;6.958;2023-01-19T02:26:04;4.87;;;4.47;;
3677;SDS011;1855;50.934;6.958;2023-01-19T02:28:33;5.00;;;4.60;;
3677;SDS011;1855;50.934;6.958;2023-01-19T02:31:03;4.50;;;4.10;;
3677;SDS011;1855;50.934;6.958;2023-01-19T02:33:30;4.95;;;4.45;;
3677;SDS011;1855;50.934;6.958;2023-01-19T02:35:57;4.65;;;4.32;;
3677;SDS011;1855;50.934;6.958;2023-01-19T02:38:24;4.50;;;4.20;;
3677;SDS011;1855;50.934;6.958;2023-01-19T02:40:53;4.32;;;3.92;;
3677;SDS011;1855;50.934;6.958;2023-01-19T02:43:24;4.85;;;4.45;;
3677;SDS011;1855;50.934;6.958;2023-01-19T02:45:52;5.22;;;4.55;;
3677;SDS011;1855;50.934;6.958;2023-01-19T02:48:20;5.22;;;4.82;;
3677;SDS011;1855;50.934;6.958;2023-01-19T02:50:47;4.93;;;4.43;;
3677;SDS011;1855;50.934;6.958;2023-01-19T02:56:28;4.22;;;3.92;;
3677;SDS011;1855;50.934;6.958;2023-01-19T02:59:05;4.40;;;4.00;;
3677;SDS011;1855;50.934;6.958;2023-01-19T03:01:41;4.57;;;4.18;;
3677;SDS011;1855;50.934;6.958;2023-01-19T03:04:21;4.90;;;4.50;;
3677;SDS011;1855;50.934;6.958;2023-01-19T03:06:54;4.57;;;4.18;;
3677;SDS011;1855;50.934;6.958;2023-01-19T03:09:31;5.47;;;4.30;;
3677;SDS011;1855;50.934;6.958;2023-01-19T03:12:07;5.00;;;4.00;;
3677;SDS011;1855;50.934;6.958;2023-01-19T03:14:41;4.75;;;4.25;;
3677;SDS011;1855;50.934;6.958;2023-01-19T03:17:11;4.50;;;4.10;;
3677;SDS011;1855;50.934;6.958;2023-01-19T03:19:40;4.78;;;4.38;;
3677;SDS011;1855;50.934;6.958;2023-01-19T03:22:10;5.40;;;4.60;;
3677;SDS011;1855;50.934;6.958;2023-01-19T03:24:40;4.90;;;4.50;;
3677;SDS011;1855;50.934;6.958;2023-01-19T03:27:09;4.77;;;4.37;;
3677;SDS011;1855;50.934;6.958;2023-01-19T03:29:41;4.53;;;4.10;;
3677;SDS011;1855;50.934;6.958;2023-01-19T03:32:14;5.22;;;4.72;;
3677;SDS011;1855;50.934;6.958;2023-01-19T03:34:43;5.00;;;4.60;;
3677;SDS011;1855;50.934;6.958;2023-01-19T03:37:11;4.70;;;4.30;;
3677;SDS011;1855;50.934;6.958;2023-01-19T03:39:41;4.22;;;3.83;;
3677;SDS011;1855;50.934;6.958;2023-01-19T03:42:08;4.40;;;4.00;;
3677;SDS011;1855;50.934;6.958;2023-01-19T03:44:38;4.82;;;4.43;;
3677;SDS011;1855;50.934;6.958;2023-01-19T03:47:09;4.75;;;4.35;;
3677;SDS011;1855;50.934;6.958;2023-01-19T03:49:37;4.45;;;3.80;;
3677;SDS011;1855;50.934;6.958;2023-01-19T03:52:06;5.70;;;4.30;;
3677;SDS011;1855;50.934;6.958;2023-01-19T03:54:33;4.00;;;3.60;;
3677;SDS011;1855;50.934;6.958;2023-01-19T03:57:00;4.50;;;4.10;;
3677;SDS011;1855;50.934;6.958;2023-01-19T03:59:27;5.10;;;4.10;;
3677;SDS011;1855;50.934;6.958;2023-01-19T04:01:55;4.20;;;3.70;;
3677;SDS011;1855;50.934;6.958;2023-01-19T04:04:22;4.53;;;4.10;;
3677;SDS011;1855;50.934;6.958;2023-01-19T04:06:49;4.60;;;4.20;;
3677;SDS011;1855;50.934;6.958;2023-01-19T04:09:16;4.40;;;4.00;;
3677;SDS011;1855;50.934;6.958;2023-01-19T04:11:43;4.57;;;4.18;;
3677;SDS011;1855;50.934;6.958;2023-01-19T04:14:09;5.43;;;4.30;;
3677;SDS011;1855;50.934;6.958;2023-01-19T04:16:36;4.53;;;4.20;;
3677;SDS011;1855;50.934;6.958;2023-01-19T04:19:04;4.95;;;4.45;;
3677;SDS011;1855;50.934;6.958;2023-01-19T04:21:31;4.07;;;3.77;;
3677;SDS011;1855;50.934;6.958;2023-01-19T04:23:57;4.35;;;3.95;;
3677;SDS011;1855;50.934;6.958;2023-01-19T04:26:25;4.68;;;4.20;;
3677;SDS011;1855;50.934;6.958;2023-01-19T04:28:52;4.30;;;3.97;;
3677;SDS011;1855;50.934;6.958;2023-01-19T04:31:19;4.25;;;3.85;;
3677;SDS011;1855;50.934;6.958;2023-01-19T04:33:47;4.57;;;4.18;;
3677;SDS011;1855;50.934;6.958;2023-01-19T04:36:15;4.60;;;4.20;;
3677;SDS011;1855;50.934;6.958;2023-01-19T04:38:42;4.10;;;3.70;;
3677;SDS011;1855;50.934;6.958;2023-01-19T04:41:10;6.40;;;3.80;;
3677;SDS011;1855;50.934;6.958;2023-01-19T04:43:37;4.40;;;4.00;;
3677;SDS011;1855;50.934;6.958;2023-01-19T04:46:04;4.25;;;3.95;;
3677;SDS011;1855;50.934;6.958;2023-01-19T04:48:31;4.43;;;4.03;;
3677;SDS011;1855;50.934;6.958;2023-01-19T04:50:58;4.20;;;3.80;;
3677;SDS011;1855;50.934;6.958;2023-01-19T04:53:26;4.00;;;3.70;;
3677;SDS011;1855;50.934;6.958;2023-01-19T04:55:53;4.43;;;3.90;;
3677;SDS011;1855;50.934;6.958;2023-01-19T04:58:20;4.88;;;3.90;;
3677;SDS011;1855;50.934;6.958;2023-01-19T05:00:46;4.95;;;4.45;;
3677;SDS011;1855;50.934;6.958;2023-01-19T05:03:15;4.85;;;4.22;;
3677;SDS011;1855;50.934;6.958;2023-01-19T05:05:43;4.25;;;3.85;;
3677;SDS011;1855;50.934;6.958;2023-01-19T05:08:10;4.63;;;4.22;;
3677;SDS011;1855;50.934;6.958;2023-01-19T05:10:38;5.90;;;4.57;;
3677;SDS011;1855;50.934;6.958;2023-01-19T05:13:04;4.10;;;3.65;;
3677;SDS011;1855;50.934;6.958;2023-01-19T05:15:31;6.13;;;4.90;;
3677;SDS011;1855;50.934;6.958;2023-01-19T05:17:58;4.97;;;4.20;;
3677;SDS011;1855;50.934;6.958;2023-01-19T05:20:25;5.70;;;4.73;;
3677;SDS011;1855;50.934;6.958;2023-01-19T05:22:52;4.60;;;4.20;;
3677;SDS011;1855;50.934;6.958;2023-01-19T05:25:18;5.38;;;4.70;;
3677;SDS011;1855;50.934;6.958;2023-01-19T05:27:46;5.43;;;4.93;;
3677;SDS011;1855;50.934;6.958;2023-01-19T05:30:14;5.28;;;4.72;;
3677;SDS011;1855;50.934;6.958;2023-01-19T05:32:41;6.03;;;4.90;;
3677;SDS011;1855;50.934;6.958;2023-01-19T05:35:08;6.00;;;5.40;;
3677;SDS011;1855;50.934;6.958;2023-01-19T05:37:37;5.35;;;4.85;;
3677;SDS011;1855;50.934;6.958;2023-01-19T05:40:05;6.47;;;5.77;;
3677;SDS011;1855;50.934;6.958;2023-01-19T05:42:33;6.10;;;5.50;;
3677;SDS011;1855;50.934;6.958;2023-01-19T05:45:02;6.88;;;5.18;;
3677;SDS011;1855;50.934;6.958;2023-01-19T05:47:30;7.47;;;6.18;;
3677;SDS011;1855;50.934;6.958;2023-01-19T05:49:56;6.82;;;5.63;;
3677;SDS011;1855;50.934;6.958;2023-01-19T05:52:23;9.77;;;6.57;;
3677;SDS011;1855;50.934;6.958;2023-01-19T05:54:50;8.63;;;6.90;;
3677;SDS011;1855;50.934;6.958;2023-01-19T05:57:19;10.10;;;7.70;;
3677;SDS011;1855;50.934;6.958;2023-01-19T05:59:46;9.77;;;7.68;;
3677;SDS011;1855;50.934;6.958;2023-01-19T06:02:14;11.00;;;8.50;;
3677;SDS011;1855;50.934;6.958;2023-01-19T06:04:41;11.13;;;8.45;;
3677;SDS011;1855;50.934;6.958;2023-01-19T06:07:08;16.65;;;9.57;;
3677;SDS011;1855;50.934;6.958;2023-01-19T06:09:35;12.52;;;9.10;;
3677;SDS011;1855;50.934;6.958;2023-01-19T06:12:02;12.65;;;10.20;;
3677;SDS011;1855;50.934;6.958;2023-01-19T06:14:29;14.55;;;10.52;;
3677;SDS011;1855;50.934;6.958;2023-01-19T06:16:56;17.42;;;12.25;;
3677;SDS011;1855;50.934;6.958;2023-01-19T06:19:24;16.65;;;11.93;;
3677;SDS011;1855;50.934;6.958;2023-01-19T06:21:51;17.60;;;13.00;;
3677;SDS011;1855;50.934;6.958;2023-01-19T06:24:19;20.85;;;14.38;;
3677;SDS011;1855;50.934;6.958;2023-01-19T06:26:47;16.33;;;12.50;;
3677;SDS011;1855;50.934;6.958;2023-01-19T06:29:13;18.85;;;14.50;;
3677;SDS011;1855;50.934;6.958;2023-01-19T06:31:40;19.60;;;14.10;;
3677;SDS011;1855;50.934;6.958;2023-01-19T06:34:07;17.63;;;14.05;;
3677;SDS011;1855;50.934;6.958;2023-01-19T06:36:36;17.67;;;13.97;;
3677;SDS011;1855;50.934;6.958;2023-01-19T06:39:04;19.50;;;14.70;;
3677;SDS011;1855;50.934;6.958;2023-01-19T06:41:31;17.92;;;14.80;;
3677;SDS011;1855;50.934;6.958;2023-01-19T06:43:58;19.25;;;15.00;;
3677;SDS011;1855;50.934;6.958;2023-01-19T06:46:26;17.42;;;13.77;;
3677;SDS011;1855;50.934;6.958;2023-01-19T06:48:53;18.65;;;14.30;;
3677;SDS011;1855;50.934;6.958;2023-01-19T06:51:20;19.15;;;15.07;;
3677;SDS011;1855;50.934;6.958;2023-01-19T06:53:48;19.63;;;14.82;;
3677;SDS011;1855;50.934;6.958;2023-01-19T06:56:15;18.15;;;14.40;;
3677;SDS011;1855;50.934;6.958;2023-01-19T06:58:41;17.83;;;14.73;;
3677;SDS011;1855;50.934;6.958;2023-01-19T07:01:08;19.03;;;13.90;;
3677;SDS011;1855;50.934;6.958;2023-01-19T07:03:35;18.98;;;14.18;;
3677;SDS011;1855;50.934;6.958;2023-01-19T07:06:03;19.45;;;15.00;;
3677;SDS011;1855;50.934;6.958;2023-01-19T07:08:31;18.03;;;15.50;;
3677;SDS011;1855;50.934;6.958;2023-01-19T07:11:00;19.23;;;14.75;;
3677;SDS011;1855;50.934;6.958;2023-01-19T07:13:31;20.27;;;14.70;;
3677;SDS011;1855;50.934;6.958;2023-01-19T07:16:06;20.27;;;15.68;;
3677;SDS011;1855;50.934;6.958;2023-01-19T07:18:35;19.80;;;16.75;;
3677;SDS011;1855;50.934;6.958;2023-01-19T07:21:02;22.50;;;16.50;;
3677;SDS011;1855;50.934;6.958;2023-01-19T07:23:29;22.00;;;17.40;;
3677;SDS011;1855;50.934;6.958;2023-01-19T07:26:00;21.15;;;16.65;;
3677;SDS011;1855;50.934;6.958;2023-01-19T07:28:30;23.10;;;17.08;;
3677;SDS011;1855;50.934;6.958;2023-01-19T07:30:57;21.43;;;17.43;;
3677;SDS011;1855;50.934;6.958;2023-01-19T07:33:24;22.17;;;16.77;;
3677;SDS011;1855;50.934;6.958;2023-01-19T07:35:51;22.23;;;16.67;;
3677;SDS011;1855;50.934;6.958;2023-01-19T07:38:18;21.88;;;17.75;;
3677;SDS011;1855;50.934;6.958;2023-01-19T07:40:45;23.38;;;17.85;;
3677;SDS011;1855;50.934;6.958;2023-01-19T07:43:19;22.58;;;17.80;;
3677;SDS011;1855;50.934;6.958;2023-01-19T07:45:45;22.73;;;17.77;;
3677;SDS011;1855;50.934;6.958;2023-01-19T07:48:13;23.58;;;17.80;;
3677;SDS011;1855;50.934;6.958;2023-01-19T07:50:40;23.10;;;17.25;;
3677;SDS011;1855;50.934;6.958;2023-01-19T07:53:07;21.80;;;18.02;;
3677;SDS011;1855;50.934;6.958;2023-01-19T07:55:35;21.25;;;17.10;;
3677;SDS011;1855;50.934;6.958;2023-01-19T07:58:02;23.05;;;17.85;;
3677;SDS011;1855;50.934;6.958;2023-01-19T08:00:32;23.63;;;17.52;;
3677;SDS011;1855;50.934;6.958;2023-01-19T08:03:00;22.55;;;17.58;;
3677;SDS011;1855;50.934;6.958;2023-01-19T08:05:28;21.98;;;17.73;;
3677;SDS011;1855;50.934;6.958;2023-01-19T08:07:55;20.70;;;17.80;;
3677;SDS011;1855;50.934;6.958;2023-01-19T08:10:22;21.40;;;16.85;;
3677;SDS011;1855;50.934;6.958;2023-01-19T08:12:50;20.92;;;18.27;;
3677;SDS011;1855;50.934;6.958;2023-01-19T08:15:17;21.45;;;18.15;;
3677;SDS011;1855;50.934;6.958;2023-01-19T08:17:54;21.75;;;16.92;;
3677;SDS011;1855;50.934;6.958;2023-01-19T08:20:21;19.92;;;17.35;;
3677;SDS011;1855;50.934;6.958;2023-01-19T08:22:48;20.02;;;16.85;;
3677;SDS011;1855;50.934;6.958;2023-01-19T08:25:15;19.35;;;17.25;;
3677;SDS011;1855;50.934;6.958;2023-01-19T08:27:42;19.30;;;16.48;;
3677;SDS011;1855;50.934;6.958;2023-01-19T08:30:09;20.07;;;16.20;;
3677;SDS011;1855;50.934;6.958;2023-01-19T08:32:36;19.48;;;16.23;;
3677;SDS011;1855;50.934;6.958;2023-01-19T08:35:05;17.60;;;15.70;;
3677;SDS011;1855;50.934;6.958;2023-01-19T08:37:32;17.98;;;16.02;;
3677;SDS011;1855;50.934;6.958;2023-01-19T08:39:59;17.65;;;15.68;;
3677;SDS011;1855;50.934;6.958;2023-01-19T08:42:26;17.13;;;15.07;;
3677;SDS011;1855;50.934;6.958;2023-01-19T08:44:53;18.95;;;15.50;;
3677;SDS011;1855;50.934;6.958;2023-01-19T08:47:20;18.30;;;15.37;;
3677;SDS011;1855;50.934;6.958;2023-01-19T08:49:47;16.65;;;14.85;;
3677;SDS011;1855;50.934;6.958;2023-01-19T08:52:15;16.57;;;14.87;;
3677;SDS011;1855;50.934;6.958;2023-01-19T08:54:42;18.05;;;14.77;;
3677;SDS011;1855;50.934;6.958;2023-01-19T08:57:08;16.48;;;14.65;;
3677;SDS011;1855;50.934;6.958;2023-01-19T08:59:35;18.73;;;15.82;;
3677;SDS011;1855;50.934;6.958;2023-01-19T09:02:02;19.50;;;16.52;;
3677;SDS011;1855;50.934;6.958;2023-01-19T09:04:29;17.33;;;15.20;;
3677;SDS011;1855;50.934;6.958;2023-01-19T09:06:58;17.65;;;14.73;;
3677;SDS011;1855;50.934;6.958;2023-01-19T09:09:26;17.08;;;14.18;;
3677;SDS011;1855;50.934;6.958;2023-01-19T09:11:53;16.10;;;14.43;;
3677;SDS011;1855;50.934;6.958;2023-01-19T09:14:20;16.90;;;14.48;;
3677;SDS011;1855;50.934;6.958;2023-01-19T09:16:47;18.33;;;15.40;;
3677;SDS011;1855;50.934;6.958;2023-01-19T09:19:14;17.52;;;15.50;;
3677;SDS011;1855;50.934;6.958;2023-01-19T09:21:40;18.60;;;15.47;;
3677;SDS011;1855;50.934;6.958;2023-01-19T09:24:07;19.85;;;15.82;;
3677;SDS011;1855;50.934;6.958;2023-01-19T09:26:35;17.52;;;15.63;;
3677;SDS011;1855;50.934;6.958;2023-01-19T09:29:04;18.27;;;16.10;;
3677;SDS011;1855;50.934;6.958;2023-01-19T09:31:31;19.25;;;15.00;;
3677;SDS011;1855;50.934;6.958;2023-01-19T09:33:59;18.13;;;15.00;;
3677;SDS011;1855;50.934;6.958;2023-01-19T09:36:25;18.02;;;16.10;;
3677;SDS011;1855;50.934;6.958;2023-01-19T09:38:58;19.45;;;16.23;;
3677;SDS011;1855;50.934;6.958;2023-01-19T09:41:25;18.10;;;15.90;;
3677;SDS011;1855;50.934;6.958;2023-01-19T09:43:55;17.35;;;15.45;;
3677;SDS011;1855;50.934;6.958;2023-01-19T09:46:26;19.27;;;16.40;;
3677;SDS011;1855;50.934;6.958;2023-01-19T09:48:58;20.52;;;16.65;;
3677;SDS011;1855;50.934;6.958;2023-01-19T09:51:31;20.17;;;17.03;;
3677;SDS011;1855;50.934;6.958;2023-01-19T09:54:03;19.63;;;16.33;;
3677;SDS011;1855;50.934;6.958;2023-01-19T09:56:33;18.83;;;16.40;;
3677;SDS011;1855;50.934;6.958;2023-01-19T09:59:02;19.60;;;16.95;;
3677;SDS011;1855;50.934;6.958;2023-01-19T10:01:49;19.93;;;17.23;;
3677;SDS011;1855;50.934;6.958;2023-01-19T10:04:31;20.20;;;17.23;;
3677;SDS011;1855;50.934;6.958;2023-01-19T10:07:05;22.30;;;17.70;;
3677;SDS011;1855;50.934;6.958;2023-01-19T10:09:44;21.73;;;17.60;;
3677;SDS011;1855;50.934;6.958;2023-01-19T10:12:25;22.35;;;18.50;;
3677;SDS011;1855;50.934;6.958;2023-01-19T10:15:02;22.88;;;19.67;;
3677;SDS011;1855;50.934;6.958;2023-01-19T10:17:42;25.40;;;19.67;;
3677;SDS011;1855;50.934;6.958;2023-01-19T10:20:24;23.67;;;19.80;;
3677;SDS011;1855;50.934;6.958;2023-01-19T10:22:58;24.35;;;19.95;;
3677;SDS011;1855;50.934;6.958;2023-01-19T10:25:27;24.00;;;19.20;;
3677;SDS011;1855;50.934;6.958;2023-01-19T10:27:55;22.83;;;19.08;;
3677;SDS011;1855;50.934;6.958;2023-01-19T10:30:31;25.58;;;19.77;;
3677;SDS011;1855;50.934;6.958;2023-01-19T10:32:57;30.45;;;20.88;;
3677;SDS011;1855;50.934;6.958;2023-01-19T10:35:24;29.33;;;21.70;;
3677;SDS011;1855;50.934;6.958;2023-01-19T10:37:51;28.20;;;21.95;;
3677;SDS011;1855;50.934;6.958;2023-01-19T10:40:24;31.67;;;22.03;;
3677;SDS011;1855;50.934;6.958;2023-01-19T10:46:01;30.38;;;20.77;;
3677;SDS011;1855;50.934;6.958;2023-01-19T10:48:35;28.75;;;21.33;;
3677;SDS011;1855;50.934;6.958;2023-01-19T10:51:03;27.35;;;21.08;;
3677;SDS011;1855;50.934;6.958;2023-01-19T10:53:31;29.65;;;21.40;;
3677;SDS011;1855;50.934;6.958;2023-01-19T10:56:11;25.77;;;20.17;;
3677;SDS011;1855;50.934;6.958;2023-01-19T10:58:43;25.70;;;19.73;;
3677;SDS011;1855;50.934;6.958;2023-01-19T11:01:16;24.60;;;18.90;;
3677;SDS011;1855;50.934;6.958;2023-01-19T11:03:46;25.10;;;19.17;;
3677;SDS011;1855;50.934;6.958;2023-01-19T11:09:14;25.42;;;19.95;;
3677;SDS011;1855;50.934;6.958;2023-01-19T11:11:43;24.45;;;18.88;;
3677;SDS011;1855;50.934;6.958;2023-01-19T11:14:16;25.17;;;19.38;;
3677;SDS011;1855;50.934;6.958;2023-01-19T11:16:46;25.10;;;19.13;;
3677;SDS011;1855;50.934;6.958;2023-01-19T11:19:17;23.58;;;19.80;;
3677;SDS011;1855;50.934;6.958;2023-01-19T11:21:46;23.00;;;18.83;;
3677;SDS011;1855;50.934;6.958;2023-01-19T11:24:13;23.77;;;18.60;;
3677;SDS011;1855;50.934;6.958;2023-01-19T11:26:41;21.58;;;17.15;;
3677;SDS011;1855;50.934;6.958;2023-01-19T11:29:14;20.70;;;17.35;;
3677;SDS011;1855;50.934;6.958;2023-01-19T11:31:43;21.73;;;17.38;;
3677;SDS011;1855;50.934;6.958;2023-01-19T11:34:23;21.23;;;18.20;;
3677;SDS011;1855;50.934;6.958;2023-01-19T11:36:56;22.65;;;17.38;;
3677;SDS011;1855;50.934;6.958;2023-01-19T11:39:24;19.80;;;15.13;;
3677;SDS011;1855;50.934;6.958;2023-01-19T11:41:53;20.08;;;16.20;;
3677;SDS011;1855;50.934;6.958;2023-01-19T11:44:23;18.40;;;16.50;;
3677;SDS011;1855;50.934;6.958;2023-01-19T11:46:54;19.17;;;15.00;;
3677;SDS011;1855;50.934;6.958;2023-01-19T11:49:24;16.97;;;14.23;;
3677;SDS011;1855;50.934;6.958;2023-01-19T11:51:57;18.73;;;15.18;;
3677;SDS011;1855;50.934;6.958;2023-01-19T11:54:28;17.80;;;14.50;;
3677;SDS011;1855;50.934;6.958;2023-01-19T11:57:05;19.23;;;13.68;;
3677;SDS011;1855;50.934;6.958;2023-01-19T11:59:38;16.55;;;13.57;;
3677;SDS011;1855;50.934;6.958;2023-01-19T12:02:10;14.87;;;12.83;;
3677;SDS011;1855;50.934;6.958;2023-01-19T12:04:45;14.55;;;12.20;;
3677;SDS011;1855;50.934;6.958;2023-01-19T12:07:14;15.20;;;13.60;;
3677;SDS011;1855;50.934;6.958;2023-01-19T12:09:47;16.58;;;12.75;;
3677;SDS011;1855;50.934;6.958;2023-01-19T12:12:22;13.63;;;11.95;;
3677;SDS011;1855;50.934;6.958;2023-01-19T12:14:54;16.00;;;11.90;;
3677;SDS011;1855;50.934;6.958;2023-01-19T12:17:28;13.95;;;11.15;;
3677;SDS011;1855;50.934;6.958;2023-01-19T12:19:58;12.25;;;10.45;;
3677;SDS011;1855;50.934;6.958;2023-01-19T12:22:30;13.37;;;10.93;;
3677;SDS011;1855;50.934;6.958;2023-01-19T12:25:04;14.60;;;11.00;;
3677;SDS011;1855;50.934;6.958;2023-01-19T12:27:37;13.10;;;11.70;;
3677;SDS011;1855;50.934;6.958;2023-01-19T12:30:08;14.63;;;11.52;;
3677;SDS011;1855;50.934;6.958;2023-01-19T12:32:45;14.55;;;12.20;;
3677;SDS011;1855;50.934;6.958;2023-01-19T12:41:16;12.73;;;10.80;;
3677;SDS011;1855;50.934;6.958;2023-01-19T12:43:48;14.52;;;11.93;;
3677;SDS011;1855;50.934;6.958;2023-01-19T12:46:53;13.40;;;11.57;;
3677;SDS011;1855;50.934;6.958;2023-01-19T12:49:29;15.45;;;12.40;;
3677;SDS011;1855;50.934;6.958;2023-01-19T12:52:09;13.93;;;11.75;;
3677;SDS011;1855;50.934;6.958;2023-01-19T12:54:59;16.27;;;11.15;;
3677;SDS011;1855;50.934;6.958;2023-01-19T12:57:32;14.57;;;10.93;;
3677;SDS011;1855;50.934;6.958;2023-01-19T13:00:03;14.10;;;12.38;;
3677;SDS011;1855;50.934;6.958;2023-01-19T13:05:22;15.52;;;11.27;;
3677;SDS011;1855;50.934;6.958;2023-01-19T13:08:17;14.95;;;11.40;;
3677;SDS011;1855;50.934;6.958;2023-01-19T13:13:44;14.57;;;12.20;;
3677;SDS011;1855;50.934;6.958;2023-01-19T13:16:54;15.07;;;10.90;;
3677;SDS011;1855;50.934;6.958;2023-01-19T13:19:51;16.73;;;11.77;;
3677;SDS011;1855;50.934;6.958;2023-01-19T13:25:31;15.20;;;11.90;;
3677;SDS011;1855;50.934;6.958;2023-01-19T13:28:00;14.32;;;11.30;;
3677;SDS011;1855;50.934;6.958;2023-01-19T13:30:33;15.40;;;11.60;;
3677;SDS011;1855;50.934;6.958;2023-01-19T13:33:12;14.85;;;12.15;;
3677;SDS011;1855;50.934;6.958;2023-01-19T13:35:50;13.68;;;10.55;;
3677;SDS011;1855;50.934;6.958;2023-01-19T13:38:18;11.80;;;10.50;;
3677;SDS011;1855;50.934;6.958;2023-01-19T13:40:48;12.77;;;10.25;;
3677;SDS011;1855;50.934;6.958;2023-01-19T13:43:16;11.93;;;10.15;;
3677;SDS011;1855;50.934;6.958;2023-01-19T13:45:46;13.00;;;11.05;;
3677;SDS011;1855;50.934;6.958;2023-01-19T13:48:15;14.40;;;10.52;;
3677;SDS011;1855;50.934;6.958;2023-01-19T13:50:57;13.30;;;11.32;;
3677;SDS011;1855;50.934;6.958;2023-01-19T13:53:26;13.40;;;11.90;;
3677;SDS011;1855;50.934;6.958;2023-01-19T13:58:55;11.65;;;10.45;;
3677;SDS011;1855;50.934;6.958;2023-01-19T14:01:23;12.57;;;11.20;;
3677;SDS011;1855;50.934;6.958;2023-01-19T14:03:50;15.43;;;12.40;;
3677;SDS011;1855;50.934;6.958;2023-01-19T14:06:20;14.70;;;11.80;;
3677;SDS011;1855;50.934;6.958;2023-01-19T14:11:31;15.95;;;11.23;;
3677;SDS011;1855;50.934;6.958;2023-01-19T14:13:58;10.50;;;9.50;;
3677;SDS011;1855;50.934;6.958;2023-01-19T14:16:25;14.13;;;12.30;;
3677;SDS011;1855;50.934;6.958;2023-01-19T14:18:57;11.57;;;10.30;;
3677;SDS011;1855;50.934;6.958;2023-01-19T14:21:35;12.10;;;10.90;;
3677;SDS011;1855;50.934;6.958;2023-01-19T14:24:07;13.35;;;11.40;;
3677;SDS011;1855;50.934;6.958;2023-01-19T14:26:40;12.82;;;11.05;;
3677;SDS011;1855;50.934;6.958;2023-01-19T14:29:14;13.43;;;11.80;;
3677;SDS011;1855;50.934;6.958;2023-01-19T14:31:49;13.25;;;11.88;;
3677;SDS011;1855;50.934;6.958;2023-01-19T14:37:04;13.00;;;11.55;;
3677;SDS011;1855;50.934;6.958;2023-01-19T14:39:42;14.27;;;11.80;;
3677;SDS011;1855;50.934;6.958;2023-01-19T14:42:13;13.38;;;11.73;;
3677;SDS011;1855;50.934;6.958;2023-01-19T14:44:43;13.88;;;11.77;;
3677;SDS011;1855;50.934;6.958;2023-01-19T14:47:26;13.13;;;11.73;;
3677;SDS011;1855;50.934;6.958;2023-01-19T14:49:56;13.98;;;11.43;;
3677;SDS011;1855;50.934;6.958;2023-01-19T14:52:35;12.20;;;10.98;;
3677;SDS011;1855;50.934;6.958;2023-01-19T14:55:05;12.30;;;11.10;;
3677;SDS011;1855;50.934;6.958;2023-01-19T14:57:43;12.20;;;10.82;;
3677;SDS011;1855;50.934;6.958;2023-01-19T15:00:14;12.10;;;10.25;;
3677;SDS011;1855;50.934;6.958;2023-01-19T15:02:42;12.25;;;10.77;;
3677;SDS011;1855;50.934;6.958;2023-01-19T15:05:09;12.50;;;10.10;;
3677;SDS011;1855;50.934;6.958;2023-01-19T15:07:36;11.10;;;10.00;;
3677;SDS011;1855;50.934;6.958;2023-01-19T15:10:08;13.27;;;10.60;;
3677;SDS011;1855;50.934;6.958;2023-01-19T15:12:40;11.23;;;10.13;;
3677;SDS011;1855;50.934;6.958;2023-01-19T15:15:13;11.40;;;10.10;;
3677;SDS011;1855;50.934;6.958;2023-01-19T15:17:57;11.53;;;10.33;;
3677;SDS011;1855;50.934;6.958;2023-01-19T15:20:31;12.07;;;10.80;;
3677;SDS011;1855;50.934;6.958;2023-01-19T15:22:58;11.07;;;9.90;;
3677;SDS011;1855;50.934;6.958;2023-01-19T15:25:28;11.30;;;10.10;;
3677;SDS011;1855;50.934;6.958;2023-01-19T15:27:55;10.75;;;9.65;;
3677;SDS011;1855;50.934;6.958;2023-01-19T15:30:25;10.60;;;9.50;;
3677;SDS011;1855;50.934;6.958;2023-01-19T15:32:54;12.18;;;9.82;;
3677;SDS011;1855;50.934;6.958;2023-01-19T15:35:22;10.98;;;9.40;;
3677;SDS011;1855;50.934;6.958;2023-01-19T15:37:50;11.10;;;9.90;;
3677;SDS011;1855;50.934;6.958;2023-01-19T15:40:17;11.13;;;9.65;;
3677;SDS011;1855;50.934;6.958;2023-01-19T15:42:46;10.30;;;9.30;;
3677;SDS011;1855;50.934;6.958;2023-01-19T15:45:21;11.10;;;9.30;;
3677;SDS011;1855;50.934;6.958;2023-01-19T15:48:02;9.40;;;8.20;;
3677;SDS011;1855;50.934;6.958;2023-01-19T15:50:29;9.68;;;8.30;;
3677;SDS011;1855;50.934;6.958;2023-01-19T15:52:57;9.70;;;8.40;;